sensor_id;sensor_type;location;lat;lon;timestamp;P1;durP1;ratioP1;P2;durP2;ratioP2
12332;SDS011;6232;48.094;11.288;2023-02-22T00:01:36;3.17;;;2.87;;
12332;SDS011;6232;48.094;11.288;2023-02-22T00:04:31;5.00;;;3.37;;
12332;SDS011;6232;48.094;11.288;2023-02-22T00:07:19;3.40;;;2.40;;
12332;SDS011;6232;48.094;11.288;2023-02-22T00:10:05;4.00;;;2.50;;
12332;SDS011;6232;48.094;11.288;2023-02-22T00:12:57;3.70;;;2.20;;
12332;SDS011;6232;48.094;11.288;2023-02-22T00:15:43;2.63;;;2.43;;
12332;SDS011;6232;48.094;11.288;2023-02-22T00:18:28;2.83;;;2.43;;
12332;SDS011;6232;48.094;11.288;2023-02-22T00:21:15;2.60;;;2.43;;
12332;SDS011;6232;48.094;11.288;2023-02-22T00:24:00;3.00;;;2.80;;
12332;SDS011;6232;48.094;11.288;2023-02-22T00:27:01;2.30;;;2.20;;
12332;SDS011;6232;48.094;11.288;2023-02-22T00:29:47;2.73;;;2.50;;
12332;SDS011;6232;48.094;11.288;2023-02-22T00:32:33;6.50;;;2.80;;
12332;SDS011;6232;48.094;11.288;2023-02-22T00:35:19;3.40;;;3.10;;
12332;SDS011;6232;48.094;11.288;2023-02-22T00:38:05;2.77;;;2.57;;
12332;SDS011;6232;48.094;11.288;2023-02-22T00:40:51;2.83;;;2.63;;
12332;SDS011;6232;48.094;11.288;2023-02-22T00:43:37;5.33;;;2.57;;
12332;SDS011;6232;48.094;11.288;2023-02-22T00:46:23;2.53;;;2.33;;
12332;SDS011;6232;48.094;11.288;2023-02-22T00:49:08;2.80;;;2.60;;
12332;SDS011;6232;48.094;11.288;2023-02-22T00:51:54;3.97;;;2.90;;
12332;SDS011;6232;48.094;11.288;2023-02-22T00:54:39;2.80;;;2.60;;
12332;SDS011;6232;48.094;11.288;2023-02-22T00:57:25;5.07;;;3.00;;
12332;SDS011;6232;48.094;11.288;2023-02-22T01:00:15;2.83;;;2.63;;
12332;SDS011;6232;48.094;11.288;2023-02-22T01:03:01;3.60;;;2.67;;
12332;SDS011;6232;48.094;11.288;2023-02-22T01:05:47;2.63;;;2.43;;
12332;SDS011;6232;48.094;11.288;2023-02-22T01:08:32;2.50;;;2.40;;
12332;SDS011;6232;48.094;11.288;2023-02-22T01:11:18;4.03;;;2.70;;
12332;SDS011;6232;48.094;11.288;2023-02-22T01:14:04;5.80;;;2.67;;
12332;SDS011;6232;48.094;11.288;2023-02-22T01:16:54;5.77;;;2.77;;
12332;SDS011;6232;48.094;11.288;2023-02-22T01:19:40;2.87;;;2.63;;
12332;SDS011;6232;48.094;11.288;2023-02-22T01:22:26;3.57;;;3.27;;
12332;SDS011;6232;48.094;11.288;2023-02-22T01:25:15;2.83;;;2.03;;
12332;SDS011;6232;48.094;11.288;2023-02-22T01:28:00;2.43;;;2.23;;
12332;SDS011;6232;48.094;11.288;2023-02-22T01:30:47;3.40;;;3.10;;
12332;SDS011;6232;48.094;11.288;2023-02-22T01:33:32;4.00;;;3.13;;
12332;SDS011;6232;48.094;11.288;2023-02-22T01:36:18;2.60;;;2.50;;
12332;SDS011;6232;48.094;11.288;2023-02-22T01:39:04;9.07;;;2.80;;
12332;SDS011;6232;48.094;11.288;2023-02-22T01:41:50;2.33;;;2.23;;
12332;SDS011;6232;48.094;11.288;2023-02-22T01:44:38;2.93;;;2.57;;
12332;SDS011;6232;48.094;11.288;2023-02-22T01:47:25;2.83;;;2.43;;
12332;SDS011;6232;48.094;11.288;2023-02-22T01:50:11;3.90;;;2.60;;
12332;SDS011;6232;48.094;11.288;2023-02-22T01:52:56;3.00;;;2.80;;
12332;SDS011;6232;48.094;11.288;2023-02-22T01:55:42;3.40;;;3.07;;
12332;SDS011;6232;48.094;11.288;2023-02-22T01:58:29;2.80;;;2.57;;
12332;SDS011;6232;48.094;11.288;2023-02-22T02:01:17;2.37;;;2.27;;
12332;SDS011;6232;48.094;11.288;2023-02-22T02:04:09;2.73;;;2.53;;
12332;SDS011;6232;48.094;11.288;2023-02-22T02:07:02;2.80;;;2.60;;
12332;SDS011;6232;48.094;11.288;2023-02-22T02:12:37;2.50;;;2.40;;
12332;SDS011;6232;48.094;11.288;2023-02-22T02:15:24;3.63;;;2.30;;
12332;SDS011;6232;48.094;11.288;2023-02-22T02:18:10;2.20;;;2.00;;
12332;SDS011;6232;48.094;11.288;2023-02-22T02:24:11;2.77;;;2.57;;
12332;SDS011;6232;48.094;11.288;2023-02-22T02:32:43;2.43;;;2.17;;
12332;SDS011;6232;48.094;11.288;2023-02-22T02:38:48;2.40;;;2.20;;
12332;SDS011;6232;48.094;11.288;2023-02-22T02:41:45;6.03;;;2.30;;
12332;SDS011;6232;48.094;11.288;2023-02-22T02:44:36;3.10;;;2.73;;
12332;SDS011;6232;48.094;11.288;2023-02-22T02:47:27;3.10;;;2.57;;
12332;SDS011;6232;48.094;11.288;2023-02-22T02:50:16;3.77;;;2.90;;
12332;SDS011;6232;48.094;11.288;2023-02-22T02:53:04;2.77;;;2.57;;
12332;SDS011;6232;48.094;11.288;2023-02-22T02:55:51;2.93;;;2.73;;
12332;SDS011;6232;48.094;11.288;2023-02-22T02:58:44;2.57;;;2.37;;
12332;SDS011;6232;48.094;11.288;2023-02-22T03:07:33;3.30;;;2.77;;
12332;SDS011;6232;48.094;11.288;2023-02-22T03:13:32;2.63;;;2.43;;
12332;SDS011;6232;48.094;11.288;2023-02-22T03:16:25;2.90;;;2.50;;
12332;SDS011;6232;48.094;11.288;2023-02-22T03:22:09;2.47;;;2.30;;
12332;SDS011;6232;48.094;11.288;2023-02-22T03:25:03;3.33;;;2.93;;
12332;SDS011;6232;48.094;11.288;2023-02-22T03:27:56;3.93;;;2.73;;
12332;SDS011;6232;48.094;11.288;2023-02-22T03:30:50;2.30;;;2.20;;
12332;SDS011;6232;48.094;11.288;2023-02-22T03:33:39;3.60;;;2.90;;
12332;SDS011;6232;48.094;11.288;2023-02-22T03:36:28;2.50;;;2.30;;
12332;SDS011;6232;48.094;11.288;2023-02-22T03:39:14;3.00;;;2.80;;
12332;SDS011;6232;48.094;11.288;2023-02-22T03:42:05;3.00;;;2.80;;
12332;SDS011;6232;48.094;11.288;2023-02-22T03:44:52;3.77;;;3.00;;
12332;SDS011;6232;48.094;11.288;2023-02-22T03:47:40;4.10;;;2.70;;
12332;SDS011;6232;48.094;11.288;2023-02-22T03:50:27;5.23;;;2.87;;
12332;SDS011;6232;48.094;11.288;2023-02-22T03:53:14;2.80;;;2.60;;
12332;SDS011;6232;48.094;11.288;2023-02-22T03:56:02;4.23;;;3.30;;
12332;SDS011;6232;48.094;11.288;2023-02-22T03:58:51;3.50;;;3.20;;
12332;SDS011;6232;48.094;11.288;2023-02-22T04:01:37;4.10;;;2.60;;
12332;SDS011;6232;48.094;11.288;2023-02-22T04:04:23;3.90;;;3.13;;
12332;SDS011;6232;48.094;11.288;2023-02-22T04:07:09;3.47;;;3.17;;
12332;SDS011;6232;48.094;11.288;2023-02-22T04:09:54;4.13;;;3.73;;
12332;SDS011;6232;48.094;11.288;2023-02-22T04:12:40;3.77;;;3.20;;
12332;SDS011;6232;48.094;11.288;2023-02-22T04:15:25;4.50;;;3.70;;
12332;SDS011;6232;48.094;11.288;2023-02-22T04:18:11;4.20;;;3.80;;
12332;SDS011;6232;48.094;11.288;2023-02-22T04:20:56;6.13;;;3.77;;
12332;SDS011;6232;48.094;11.288;2023-02-22T04:23:42;6.60;;;4.20;;
12332;SDS011;6232;48.094;11.288;2023-02-22T04:26:28;5.00;;;3.80;;
12332;SDS011;6232;48.094;11.288;2023-02-22T04:29:13;3.40;;;3.10;;
12332;SDS011;6232;48.094;11.288;2023-02-22T04:31:59;8.00;;;3.50;;
12332;SDS011;6232;48.094;11.288;2023-02-22T04:34:44;3.43;;;3.13;;
12332;SDS011;6232;48.094;11.288;2023-02-22T04:37:30;3.83;;;2.83;;
12332;SDS011;6232;48.094;11.288;2023-02-22T04:40:18;3.80;;;2.93;;
12332;SDS011;6232;48.094;11.288;2023-02-22T04:43:03;3.77;;;3.37;;
12332;SDS011;6232;48.094;11.288;2023-02-22T04:45:49;3.33;;;2.70;;
12332;SDS011;6232;48.094;11.288;2023-02-22T04:48:35;4.03;;;3.00;;
12332;SDS011;6232;48.094;11.288;2023-02-22T04:51:20;3.47;;;3.17;;
12332;SDS011;6232;48.094;11.288;2023-02-22T04:54:06;6.23;;;2.87;;
12332;SDS011;6232;48.094;11.288;2023-02-22T04:56:51;3.40;;;3.20;;
12332;SDS011;6232;48.094;11.288;2023-02-22T04:59:37;3.50;;;2.60;;
12332;SDS011;6232;48.094;11.288;2023-02-22T05:02:22;3.00;;;2.80;;
12332;SDS011;6232;48.094;11.288;2023-02-22T05:05:08;3.17;;;2.90;;
12332;SDS011;6232;48.094;11.288;2023-02-22T05:07:53;3.30;;;3.10;;
12332;SDS011;6232;48.094;11.288;2023-02-22T05:10:39;2.87;;;2.67;;
12332;SDS011;6232;48.094;11.288;2023-02-22T05:13:25;3.90;;;3.57;;
12332;SDS011;6232;48.094;11.288;2023-02-22T05:16:10;3.23;;;2.67;;
12332;SDS011;6232;48.094;11.288;2023-02-22T05:18:56;3.23;;;2.83;;
12332;SDS011;6232;48.094;11.288;2023-02-22T05:21:41;6.13;;;3.60;;
12332;SDS011;6232;48.094;11.288;2023-02-22T05:24:27;4.37;;;2.77;;
12332;SDS011;6232;48.094;11.288;2023-02-22T05:27:13;6.80;;;3.50;;
12332;SDS011;6232;48.094;11.288;2023-02-22T05:29:58;3.30;;;3.10;;
12332;SDS011;6232;48.094;11.288;2023-02-22T05:32:44;3.40;;;3.10;;
12332;SDS011;6232;48.094;11.288;2023-02-22T05:35:30;3.20;;;2.97;;
12332;SDS011;6232;48.094;11.288;2023-02-22T05:38:16;5.00;;;2.50;;
12332;SDS011;6232;48.094;11.288;2023-02-22T05:41:01;2.33;;;2.13;;
12332;SDS011;6232;48.094;11.288;2023-02-22T05:43:47;6.77;;;2.83;;
12332;SDS011;6232;48.094;11.288;2023-02-22T05:46:32;5.63;;;2.50;;
12332;SDS011;6232;48.094;11.288;2023-02-22T05:49:18;2.47;;;2.27;;
12332;SDS011;6232;48.094;11.288;2023-02-22T05:52:04;2.57;;;2.37;;
12332;SDS011;6232;48.094;11.288;2023-02-22T05:54:49;4.63;;;2.77;;
12332;SDS011;6232;48.094;11.288;2023-02-22T05:57:35;3.13;;;2.50;;
12332;SDS011;6232;48.094;11.288;2023-02-22T06:00:22;10.90;;;2.50;;
12332;SDS011;6232;48.094;11.288;2023-02-22T06:03:08;9.50;;;2.20;;
12332;SDS011;6232;48.094;11.288;2023-02-22T06:05:55;3.00;;;2.53;;
12332;SDS011;6232;48.094;11.288;2023-02-22T06:08:40;2.53;;;2.30;;
12332;SDS011;6232;48.094;11.288;2023-02-22T06:11:26;5.20;;;2.50;;
12332;SDS011;6232;48.094;11.288;2023-02-22T06:14:11;7.57;;;2.73;;
12332;SDS011;6232;48.094;11.288;2023-02-22T06:16:57;9.53;;;3.50;;
12332;SDS011;6232;48.094;11.288;2023-02-22T06:19:43;5.93;;;2.80;;
12332;SDS011;6232;48.094;11.288;2023-02-22T06:22:28;6.77;;;3.30;;
12332;SDS011;6232;48.094;11.288;2023-02-22T06:25:14;3.73;;;3.37;;
12332;SDS011;6232;48.094;11.288;2023-02-22T06:28:00;5.67;;;3.57;;
12332;SDS011;6232;48.094;11.288;2023-02-22T06:30:46;9.73;;;4.07;;
12332;SDS011;6232;48.094;11.288;2023-02-22T06:33:32;6.13;;;4.10;;
12332;SDS011;6232;48.094;11.288;2023-02-22T06:36:17;4.40;;;3.83;;
12332;SDS011;6232;48.094;11.288;2023-02-22T06:39:03;7.27;;;4.20;;
12332;SDS011;6232;48.094;11.288;2023-02-22T06:41:48;4.10;;;3.70;;
12332;SDS011;6232;48.094;11.288;2023-02-22T06:44:35;5.43;;;4.17;;
12332;SDS011;6232;48.094;11.288;2023-02-22T06:47:21;10.87;;;4.17;;
12332;SDS011;6232;48.094;11.288;2023-02-22T06:50:07;4.10;;;3.53;;
12332;SDS011;6232;48.094;11.288;2023-02-22T06:53:01;37.67;;;15.77;;
12332;SDS011;6232;48.094;11.288;2023-02-22T06:55:47;12.60;;;6.37;;
12332;SDS011;6232;48.094;11.288;2023-02-22T06:58:32;11.80;;;4.67;;
12332;SDS011;6232;48.094;11.288;2023-02-22T07:01:18;5.90;;;3.47;;
12332;SDS011;6232;48.094;11.288;2023-02-22T07:04:04;3.70;;;3.23;;
12332;SDS011;6232;48.094;11.288;2023-02-22T07:06:49;7.80;;;3.90;;
12332;SDS011;6232;48.094;11.288;2023-02-22T07:09:35;5.83;;;4.63;;
12332;SDS011;6232;48.094;11.288;2023-02-22T07:12:20;3.97;;;3.67;;
12332;SDS011;6232;48.094;11.288;2023-02-22T07:15:06;7.33;;;4.00;;
12332;SDS011;6232;48.094;11.288;2023-02-22T07:17:51;5.73;;;4.27;;
12332;SDS011;6232;48.094;11.288;2023-02-22T07:20:37;5.57;;;4.17;;
12332;SDS011;6232;48.094;11.288;2023-02-22T07:23:23;6.40;;;4.10;;
12332;SDS011;6232;48.094;11.288;2023-02-22T07:26:08;7.70;;;4.37;;
12332;SDS011;6232;48.094;11.288;2023-02-22T07:28:54;8.27;;;4.57;;
12332;SDS011;6232;48.094;11.288;2023-02-22T07:31:40;5.63;;;4.00;;
12332;SDS011;6232;48.094;11.288;2023-02-22T07:34:25;7.77;;;3.50;;
12332;SDS011;6232;48.094;11.288;2023-02-22T07:37:11;5.80;;;4.33;;
12332;SDS011;6232;48.094;11.288;2023-02-22T07:39:56;6.77;;;4.17;;
12332;SDS011;6232;48.094;11.288;2023-02-22T07:45:40;3.80;;;3.23;;
12332;SDS011;6232;48.094;11.288;2023-02-22T07:48:26;7.63;;;3.77;;
12332;SDS011;6232;48.094;11.288;2023-02-22T07:51:13;14.10;;;4.57;;
12332;SDS011;6232;48.094;11.288;2023-02-22T07:53:59;6.27;;;4.43;;
12332;SDS011;6232;48.094;11.288;2023-02-22T07:56:47;15.03;;;4.30;;
12332;SDS011;6232;48.094;11.288;2023-02-22T07:59:33;11.10;;;4.00;;
12332;SDS011;6232;48.094;11.288;2023-02-22T08:02:18;4.20;;;3.80;;
12332;SDS011;6232;48.094;11.288;2023-02-22T08:05:05;4.37;;;3.93;;
12332;SDS011;6232;48.094;11.288;2023-02-22T08:07:51;11.23;;;4.60;;
12332;SDS011;6232;48.094;11.288;2023-02-22T08:10:37;5.93;;;4.33;;
12332;SDS011;6232;48.094;11.288;2023-02-22T08:13:22;13.67;;;6.23;;
12332;SDS011;6232;48.094;11.288;2023-02-22T08:16:08;13.73;;;6.13;;
12332;SDS011;6232;48.094;11.288;2023-02-22T08:18:53;7.63;;;5.10;;
12332;SDS011;6232;48.094;11.288;2023-02-22T08:21:39;12.53;;;4.90;;
12332;SDS011;6232;48.094;11.288;2023-02-22T08:24:24;12.37;;;4.73;;
12332;SDS011;6232;48.094;11.288;2023-02-22T08:27:10;7.90;;;3.30;;
12332;SDS011;6232;48.094;11.288;2023-02-22T08:29:56;12.00;;;2.90;;
12332;SDS011;6232;48.094;11.288;2023-02-22T08:32:41;5.73;;;3.33;;
12332;SDS011;6232;48.094;11.288;2023-02-22T08:35:27;4.17;;;3.23;;
12332;SDS011;6232;48.094;11.288;2023-02-22T08:41:01;6.60;;;3.10;;
12332;SDS011;6232;48.094;11.288;2023-02-22T08:43:47;3.40;;;2.87;;
12332;SDS011;6232;48.094;11.288;2023-02-22T08:46:32;8.03;;;2.37;;
12332;SDS011;6232;48.094;11.288;2023-02-22T08:49:18;3.73;;;2.40;;
12332;SDS011;6232;48.094;11.288;2023-02-22T08:52:04;5.10;;;2.70;;
12332;SDS011;6232;48.094;11.288;2023-02-22T08:54:50;5.93;;;2.53;;
12332;SDS011;6232;48.094;11.288;2023-02-22T08:57:36;6.83;;;2.83;;
12332;SDS011;6232;48.094;11.288;2023-02-22T09:00:21;2.40;;;2.20;;
12332;SDS011;6232;48.094;11.288;2023-02-22T09:03:11;4.03;;;2.77;;
12332;SDS011;6232;48.094;11.288;2023-02-22T09:06:00;2.60;;;2.33;;
12332;SDS011;6232;48.094;11.288;2023-02-22T09:08:45;6.53;;;2.50;;
12332;SDS011;6232;48.094;11.288;2023-02-22T09:11:31;3.07;;;2.20;;
12332;SDS011;6232;48.094;11.288;2023-02-22T09:14:16;2.40;;;2.20;;
12332;SDS011;6232;48.094;11.288;2023-02-22T09:17:03;4.20;;;2.30;;
12332;SDS011;6232;48.094;11.288;2023-02-22T09:19:49;3.47;;;2.20;;
12332;SDS011;6232;48.094;11.288;2023-02-22T09:22:34;2.27;;;2.07;;
12332;SDS011;6232;48.094;11.288;2023-02-22T09:25:20;2.60;;;2.40;;
12332;SDS011;6232;48.094;11.288;2023-02-22T09:28:06;2.87;;;2.00;;
12332;SDS011;6232;48.094;11.288;2023-02-22T09:30:51;3.20;;;2.33;;
12332;SDS011;6232;48.094;11.288;2023-02-22T09:33:37;2.30;;;1.90;;
12332;SDS011;6232;48.094;11.288;2023-02-22T09:36:23;10.83;;;2.27;;
12332;SDS011;6232;48.094;11.288;2023-02-22T09:39:09;4.07;;;2.20;;
12332;SDS011;6232;48.094;11.288;2023-02-22T09:42:10;3.17;;;1.90;;
12332;SDS011;6232;48.094;11.288;2023-02-22T09:45:10;4.40;;;2.10;;
12332;SDS011;6232;48.094;11.288;2023-02-22T09:47:59;4.93;;;2.27;;
12332;SDS011;6232;48.094;11.288;2023-02-22T09:50:46;2.90;;;2.27;;
12332;SDS011;6232;48.094;11.288;2023-02-22T09:53:36;2.43;;;2.23;;
12332;SDS011;6232;48.094;11.288;2023-02-22T09:56:26;3.73;;;2.50;;
12332;SDS011;6232;48.094;11.288;2023-02-22T09:59:12;2.00;;;1.80;;
12332;SDS011;6232;48.094;11.288;2023-02-22T10:02:09;2.10;;;1.87;;
12332;SDS011;6232;48.094;11.288;2023-02-22T10:05:02;2.70;;;2.40;;
12332;SDS011;6232;48.094;11.288;2023-02-22T10:07:54;3.50;;;1.90;;
12332;SDS011;6232;48.094;11.288;2023-02-22T10:10:43;3.20;;;2.63;;
12332;SDS011;6232;48.094;11.288;2023-02-22T10:16:51;5.60;;;2.03;;
12332;SDS011;6232;48.094;11.288;2023-02-22T10:25:26;3.37;;;2.10;;
12332;SDS011;6232;48.094;11.288;2023-02-22T10:28:20;4.60;;;2.00;;
12332;SDS011;6232;48.094;11.288;2023-02-22T10:31:10;6.73;;;2.30;;
12332;SDS011;6232;48.094;11.288;2023-02-22T10:34:00;2.60;;;1.97;;
12332;SDS011;6232;48.094;11.288;2023-02-22T10:36:46;3.17;;;1.87;;
12332;SDS011;6232;48.094;11.288;2023-02-22T10:39:34;6.77;;;2.30;;
12332;SDS011;6232;48.094;11.288;2023-02-22T10:42:21;4.20;;;2.00;;
12332;SDS011;6232;48.094;11.288;2023-02-22T10:45:20;2.60;;;2.20;;
12332;SDS011;6232;48.094;11.288;2023-02-22T10:48:08;3.10;;;2.23;;
12332;SDS011;6232;48.094;11.288;2023-02-22T10:51:00;6.50;;;2.50;;
12332;SDS011;6232;48.094;11.288;2023-02-22T10:53:52;2.07;;;1.97;;
12332;SDS011;6232;48.094;11.288;2023-02-22T10:56:46;2.20;;;1.60;;
12332;SDS011;6232;48.094;11.288;2023-02-22T10:59:33;4.27;;;2.00;;
12332;SDS011;6232;48.094;11.288;2023-02-22T11:02:20;3.87;;;1.93;;
12332;SDS011;6232;48.094;11.288;2023-02-22T11:05:08;1.50;;;1.40;;
12332;SDS011;6232;48.094;11.288;2023-02-22T11:08:14;2.30;;;1.37;;
12332;SDS011;6232;48.094;11.288;2023-02-22T11:11:00;1.90;;;1.60;;
12332;SDS011;6232;48.094;11.288;2023-02-22T11:13:49;3.93;;;1.90;;
12332;SDS011;6232;48.094;11.288;2023-02-22T11:16:40;2.17;;;1.80;;
12332;SDS011;6232;48.094;11.288;2023-02-22T11:19:27;4.30;;;1.50;;
12332;SDS011;6232;48.094;11.288;2023-02-22T11:22:19;3.10;;;1.67;;
12332;SDS011;6232;48.094;11.288;2023-02-22T11:25:05;4.17;;;1.73;;
12332;SDS011;6232;48.094;11.288;2023-02-22T11:27:51;1.70;;;1.30;;
12332;SDS011;6232;48.094;11.288;2023-02-22T11:30:38;2.87;;;1.60;;
12332;SDS011;6232;48.094;11.288;2023-02-22T11:33:24;3.73;;;1.70;;
12332;SDS011;6232;48.094;11.288;2023-02-22T11:36:13;2.00;;;1.20;;
12332;SDS011;6232;48.094;11.288;2023-02-22T11:39:23;2.23;;;1.30;;
12332;SDS011;6232;48.094;11.288;2023-02-22T11:42:23;1.90;;;1.43;;
12332;SDS011;6232;48.094;11.288;2023-02-22T11:48:01;4.20;;;1.60;;
12332;SDS011;6232;48.094;11.288;2023-02-22T12:11:13;6.27;;;2.00;;
12332;SDS011;6232;48.094;11.288;2023-02-22T12:20:03;1.90;;;1.63;;
12332;SDS011;6232;48.094;11.288;2023-02-22T12:22:59;5.93;;;2.00;;
12332;SDS011;6232;48.094;11.288;2023-02-22T12:25:58;3.60;;;1.70;;
12332;SDS011;6232;48.094;11.288;2023-02-22T12:28:46;3.07;;;1.77;;
12332;SDS011;6232;48.094;11.288;2023-02-22T12:31:36;2.40;;;1.83;;
12332;SDS011;6232;48.094;11.288;2023-02-22T12:37:21;2.73;;;1.53;;
12332;SDS011;6232;48.094;11.288;2023-02-22T12:40:09;1.90;;;1.70;;
12332;SDS011;6232;48.094;11.288;2023-02-22T12:43:01;2.90;;;1.60;;
12332;SDS011;6232;48.094;11.288;2023-02-22T12:48:50;2.50;;;1.70;;
12332;SDS011;6232;48.094;11.288;2023-02-22T12:51:52;3.10;;;1.57;;
12332;SDS011;6232;48.094;11.288;2023-02-22T12:57:39;5.73;;;1.67;;
12332;SDS011;6232;48.094;11.288;2023-02-22T13:00:46;3.17;;;1.30;;
12332;SDS011;6232;48.094;11.288;2023-02-22T13:03:38;4.23;;;1.43;;
12332;SDS011;6232;48.094;11.288;2023-02-22T13:18:21;5.17;;;1.77;;
12332;SDS011;6232;48.094;11.288;2023-02-22T13:21:11;1.60;;;1.50;;
12332;SDS011;6232;48.094;11.288;2023-02-22T13:24:04;2.37;;;1.87;;
12332;SDS011;6232;48.094;11.288;2023-02-22T13:26:52;2.40;;;1.87;;
12332;SDS011;6232;48.094;11.288;2023-02-22T13:29:39;3.57;;;2.10;;
12332;SDS011;6232;48.094;11.288;2023-02-22T13:53:14;7.60;;;1.90;;
12332;SDS011;6232;48.094;11.288;2023-02-22T13:56:00;4.77;;;1.83;;
12332;SDS011;6232;48.094;11.288;2023-02-22T13:59:04;2.63;;;1.80;;
12332;SDS011;6232;48.094;11.288;2023-02-22T14:01:50;5.00;;;1.70;;
12332;SDS011;6232;48.094;11.288;2023-02-22T14:04:40;3.00;;;2.00;;
12332;SDS011;6232;48.094;11.288;2023-02-22T14:07:43;4.87;;;1.83;;
12332;SDS011;6232;48.094;11.288;2023-02-22T14:16:42;4.90;;;2.27;;
12332;SDS011;6232;48.094;11.288;2023-02-22T14:19:28;1.83;;;1.33;;
12332;SDS011;6232;48.094;11.288;2023-02-22T14:22:13;3.67;;;2.10;;
12332;SDS011;6232;48.094;11.288;2023-02-22T14:31:18;6.17;;;2.80;;
12332;SDS011;6232;48.094;11.288;2023-02-22T14:37:06;3.93;;;2.27;;
12332;SDS011;6232;48.094;11.288;2023-02-22T14:39:57;5.83;;;2.47;;
12332;SDS011;6232;48.094;11.288;2023-02-22T14:43:09;5.97;;;2.80;;
12332;SDS011;6232;48.094;11.288;2023-02-22T14:45:52;5.97;;;2.70;;
12332;SDS011;6232;48.094;11.288;2023-02-22T14:48:39;2.10;;;1.80;;
12332;SDS011;6232;48.094;11.288;2023-02-22T14:51:32;4.73;;;3.07;;
12332;SDS011;6232;48.094;11.288;2023-02-22T14:54:23;5.50;;;3.60;;
12332;SDS011;6232;48.094;11.288;2023-02-22T15:00:23;3.93;;;2.93;;
12332;SDS011;6232;48.094;11.288;2023-02-22T15:03:24;6.00;;;3.10;;
12332;SDS011;6232;48.094;11.288;2023-02-22T15:06:14;6.67;;;3.10;;
12332;SDS011;6232;48.094;11.288;2023-02-22T15:09:09;6.73;;;2.90;;
12332;SDS011;6232;48.094;11.288;2023-02-22T15:14:47;4.40;;;3.00;;
12332;SDS011;6232;48.094;11.288;2023-02-22T15:17:34;5.23;;;2.97;;
12332;SDS011;6232;48.094;11.288;2023-02-22T15:20:19;9.73;;;3.53;;
12332;SDS011;6232;48.094;11.288;2023-02-22T15:23:05;6.50;;;3.67;;
12332;SDS011;6232;48.094;11.288;2023-02-22T15:25:51;4.90;;;3.07;;
12332;SDS011;6232;48.094;11.288;2023-02-22T15:28:36;16.77;;;3.87;;
12332;SDS011;6232;48.094;11.288;2023-02-22T15:31:32;6.63;;;3.83;;
12332;SDS011;6232;48.094;11.288;2023-02-22T15:34:19;10.70;;;4.40;;
12332;SDS011;6232;48.094;11.288;2023-02-22T15:37:20;23.40;;;4.83;;
12332;SDS011;6232;48.094;11.288;2023-02-22T15:40:16;8.43;;;4.63;;
12332;SDS011;6232;48.094;11.288;2023-02-22T15:43:04;23.03;;;7.60;;
12332;SDS011;6232;48.094;11.288;2023-02-22T15:45:53;16.40;;;6.50;;
12332;SDS011;6232;48.094;11.288;2023-02-22T15:48:38;10.97;;;6.00;;
12332;SDS011;6232;48.094;11.288;2023-02-22T15:51:27;10.53;;;5.60;;
12332;SDS011;6232;48.094;11.288;2023-02-22T15:54:13;12.03;;;5.17;;
12332;SDS011;6232;48.094;11.288;2023-02-22T15:56:59;12.97;;;5.47;;
12332;SDS011;6232;48.094;11.288;2023-02-22T15:59:54;18.73;;;7.00;;
12332;SDS011;6232;48.094;11.288;2023-02-22T16:02:41;20.40;;;5.60;;
12332;SDS011;6232;48.094;11.288;2023-02-22T16:08:46;10.97;;;5.60;;
12332;SDS011;6232;48.094;11.288;2023-02-22T16:11:40;16.70;;;7.13;;
12332;SDS011;6232;48.094;11.288;2023-02-22T16:17:39;13.43;;;5.80;;
12332;SDS011;6232;48.094;11.288;2023-02-22T16:23:23;13.03;;;5.67;;
12332;SDS011;6232;48.094;11.288;2023-02-22T16:29:07;15.63;;;5.53;;
12332;SDS011;6232;48.094;11.288;2023-02-22T16:31:53;8.80;;;5.00;;
12332;SDS011;6232;48.094;11.288;2023-02-22T16:34:38;12.10;;;5.90;;
12332;SDS011;6232;48.094;11.288;2023-02-22T16:37:24;22.70;;;6.77;;
12332;SDS011;6232;48.094;11.288;2023-02-22T16:40:20;12.67;;;5.30;;
12332;SDS011;6232;48.094;11.288;2023-02-22T16:43:07;13.00;;;5.97;;
12332;SDS011;6232;48.094;11.288;2023-02-22T16:45:56;14.57;;;6.40;;
12332;SDS011;6232;48.094;11.288;2023-02-22T16:48:42;12.00;;;6.70;;
12332;SDS011;6232;48.094;11.288;2023-02-22T16:51:40;11.57;;;6.63;;
12332;SDS011;6232;48.094;11.288;2023-02-22T16:54:28;13.10;;;6.10;;
12332;SDS011;6232;48.094;11.288;2023-02-22T16:57:19;12.43;;;6.77;;
12332;SDS011;6232;48.094;11.288;2023-02-22T17:00:06;10.30;;;5.90;;
12332;SDS011;6232;48.094;11.288;2023-02-22T17:02:54;16.60;;;6.70;;
12332;SDS011;6232;48.094;11.288;2023-02-22T17:05:40;12.80;;;6.50;;
12332;SDS011;6232;48.094;11.288;2023-02-22T17:08:25;13.10;;;7.20;;
12332;SDS011;6232;48.094;11.288;2023-02-22T17:11:11;13.27;;;7.20;;
12332;SDS011;6232;48.094;11.288;2023-02-22T17:13:58;15.60;;;7.10;;
12332;SDS011;6232;48.094;11.288;2023-02-22T17:16:44;14.70;;;7.57;;
12332;SDS011;6232;48.094;11.288;2023-02-22T17:19:31;12.10;;;8.00;;
12332;SDS011;6232;48.094;11.288;2023-02-22T17:22:20;17.93;;;8.67;;
12332;SDS011;6232;48.094;11.288;2023-02-22T17:25:15;28.43;;;8.90;;
12332;SDS011;6232;48.094;11.288;2023-02-22T17:28:01;14.87;;;7.67;;
12332;SDS011;6232;48.094;11.288;2023-02-22T17:30:47;20.23;;;8.30;;
12332;SDS011;6232;48.094;11.288;2023-02-22T17:33:33;22.13;;;9.73;;
12332;SDS011;6232;48.094;11.288;2023-02-22T17:36:20;17.50;;;7.10;;
12332;SDS011;6232;48.094;11.288;2023-02-22T17:39:07;15.00;;;7.93;;
12332;SDS011;6232;48.094;11.288;2023-02-22T17:41:54;15.60;;;9.60;;
12332;SDS011;6232;48.094;11.288;2023-02-22T17:44:42;20.77;;;8.40;;
12332;SDS011;6232;48.094;11.288;2023-02-22T17:47:27;22.53;;;9.63;;
12332;SDS011;6232;48.094;11.288;2023-02-22T17:50:13;14.93;;;8.57;;
12332;SDS011;6232;48.094;11.288;2023-02-22T17:52:59;17.80;;;10.30;;
12332;SDS011;6232;48.094;11.288;2023-02-22T17:55:45;16.63;;;9.33;;
12332;SDS011;6232;48.094;11.288;2023-02-22T17:58:30;16.37;;;8.30;;
12332;SDS011;6232;48.094;11.288;2023-02-22T18:01:29;15.87;;;9.33;;
12332;SDS011;6232;48.094;11.288;2023-02-22T18:04:15;14.30;;;7.70;;
12332;SDS011;6232;48.094;11.288;2023-02-22T18:07:01;16.27;;;7.57;;
12332;SDS011;6232;48.094;11.288;2023-02-22T18:09:46;12.97;;;8.17;;
12332;SDS011;6232;48.094;11.288;2023-02-22T18:12:32;14.90;;;8.90;;
12332;SDS011;6232;48.094;11.288;2023-02-22T18:15:17;19.90;;;7.93;;
12332;SDS011;6232;48.094;11.288;2023-02-22T18:18:03;43.23;;;10.87;;
12332;SDS011;6232;48.094;11.288;2023-02-22T18:20:49;12.73;;;8.20;;
12332;SDS011;6232;48.094;11.288;2023-02-22T18:23:35;17.53;;;8.73;;
12332;SDS011;6232;48.094;11.288;2023-02-22T18:26:21;16.37;;;8.90;;
12332;SDS011;6232;48.094;11.288;2023-02-22T18:29:08;27.83;;;8.83;;
12332;SDS011;6232;48.094;11.288;2023-02-22T18:31:56;17.77;;;10.00;;
12332;SDS011;6232;48.094;11.288;2023-02-22T18:34:42;19.70;;;11.70;;
12332;SDS011;6232;48.094;11.288;2023-02-22T18:37:27;26.10;;;12.50;;
12332;SDS011;6232;48.094;11.288;2023-02-22T18:40:13;18.53;;;11.00;;
12332;SDS011;6232;48.094;11.288;2023-02-22T18:42:58;17.77;;;11.77;;
12332;SDS011;6232;48.094;11.288;2023-02-22T18:45:44;18.30;;;12.00;;
12332;SDS011;6232;48.094;11.288;2023-02-22T18:48:30;28.63;;;12.80;;
12332;SDS011;6232;48.094;11.288;2023-02-22T18:51:15;22.73;;;11.80;;
12332;SDS011;6232;48.094;11.288;2023-02-22T18:54:01;17.17;;;10.53;;
12332;SDS011;6232;48.094;11.288;2023-02-22T18:56:47;27.30;;;11.50;;
12332;SDS011;6232;48.094;11.288;2023-02-22T18:59:32;20.13;;;9.30;;
12332;SDS011;6232;48.094;11.288;2023-02-22T19:02:18;26.10;;;10.77;;
12332;SDS011;6232;48.094;11.288;2023-02-22T19:05:04;19.43;;;10.57;;
12332;SDS011;6232;48.094;11.288;2023-02-22T19:07:50;14.83;;;10.60;;
12332;SDS011;6232;48.094;11.288;2023-02-22T19:10:36;16.73;;;10.13;;
12332;SDS011;6232;48.094;11.288;2023-02-22T19:13:22;17.07;;;9.87;;